地図

経路データ

SID SEASON NUMBER BASIN SUBBASIN NAME ISO_TIME NATURE LAT LON WMO_WIND WMO_PRES WMO_AGENCY TRACK_TYPE DIST2LAND LANDFALL IFLAG USA_AGENCY USA_ATCF_ID USA_LAT USA_LON USA_RECORD USA_STATUS USA_WIND USA_PRES USA_SSHS USA_R34_NE USA_R34_SE USA_R34_SW USA_R34_NW USA_R50_NE USA_R50_SE USA_R50_SW USA_R50_NW USA_R64_NE USA_R64_SE USA_R64_SW USA_R64_NW USA_POCI USA_ROCI USA_RMW USA_EYE TOKYO_LAT TOKYO_LON TOKYO_GRADE TOKYO_WIND TOKYO_PRES TOKYO_R50_DIR TOKYO_R50_LONG TOKYO_R50_SHORT TOKYO_R30_DIR TOKYO_R30_LONG TOKYO_R30_SHORT TOKYO_LAND CMA_LAT CMA_LON CMA_CAT CMA_WIND CMA_PRES HKO_LAT HKO_LON HKO_CAT HKO_WIND HKO_PRES NEWDELHI_LAT NEWDELHI_LON NEWDELHI_GRADE NEWDELHI_WIND NEWDELHI_PRES NEWDELHI_CI NEWDELHI_DP NEWDELHI_POCI REUNION_LAT REUNION_LON REUNION_TYPE REUNION_WIND REUNION_PRES REUNION_TNUM REUNION_CI REUNION_RMW REUNION_R34_NE REUNION_R34_SE REUNION_R34_SW REUNION_R34_NW REUNION_R50_NE REUNION_R50_SE REUNION_R50_SW REUNION_R50_NW REUNION_R64_NE REUNION_R64_SE REUNION_R64_SW REUNION_R64_NW BOM_LAT BOM_LON BOM_TYPE BOM_WIND BOM_PRES BOM_TNUM BOM_CI BOM_RMW BOM_R34_NE BOM_R34_SE BOM_R34_SW BOM_R34_NW BOM_R50_NE BOM_R50_SE BOM_R50_SW BOM_R50_NW BOM_R64_NE BOM_R64_SE BOM_R64_SW BOM_R64_NW BOM_ROCI BOM_POCI BOM_EYE BOM_POS_METHOD BOM_PRES_METHOD NADI_LAT NADI_LON NADI_CAT NADI_WIND NADI_PRES WELLINGTON_LAT WELLINGTON_LON WELLINGTON_WIND WELLINGTON_PRES DS824_LAT DS824_LON DS824_STAGE DS824_WIND DS824_PRES TD9636_LAT TD9636_LON TD9636_STAGE TD9636_WIND TD9636_PRES TD9635_LAT TD9635_LON TD9635_WIND TD9635_PRES TD9635_ROCI NEUMANN_LAT NEUMANN_LON NEUMANN_CLASS NEUMANN_WIND NEUMANN_PRES MLC_LAT MLC_LON MLC_CLASS MLC_WIND MLC_PRES USA_GUST BOM_GUST BOM_GUST_PER REUNION_GUST REUNION_GUST_PER USA_SEAHGT USA_SEARAD_NE USA_SEARAD_SE USA_SEARAD_SW USA_SEARAD_NW STORM_SPEED STORM_DIR
1933142N12088 1933 16 NI BB NOT_NAMED 1933-05-22 00:00:00 TS 12.0000 88.2000 main 787 763 _________O____ -1 12.0000 88.2000 TC 30 4 50
1933142N12088 1933 16 NI BB NOT_NAMED 1933-05-22 03:00:00 TS 12.1334 88.3650 main 763 732 _________PO___ -1 12.2000 88.4474 TC 30 12.0000 88.2000 1 5 51
1933142N12088 1933 16 NI BB NOT_NAMED 1933-05-22 06:00:00 TS 12.3188 88.6055 main 732 701 _________OP___ -1 12.4000 88.7000 TC 30 12.1971 88.4637 1 6 52
1933142N12088 1933 16 NI BB NOT_NAMED 1933-05-22 09:00:00 TS 12.5123 88.8566 main 692 662 _________PP___ -1 12.6000 88.9575 TC 30 12.3953 88.7221 1 6 51
1933142N12088 1933 16 NI BB NOT_NAMED 1933-05-22 12:00:00 TS 12.6979 89.0847 main 662 631 _________OP___ -1 12.8000 89.2000 TC 30 12.5958 88.9694 1 6 49
1933142N12088 1933 16 NI BB NOT_NAMED 1933-05-22 15:00:00 TS 12.8962 89.3038 main 631 601 _________PO___ -1 12.9925 89.4076 TC 30 12.8000 89.2000 1 6 45
1933142N12088 1933 16 NI BB NOT_NAMED 1933-05-22 18:00:00 TS 13.1048 89.5053 main 601 570 _________OP___ -1 13.2000 89.6000 TC 30 13.0096 89.4105 1 6 41
1933142N12088 1933 16 NI BB NOT_NAMED 1933-05-22 21:00:00 TS 13.3349 89.7002 main 570 534 _________PP___ -1 13.4425 89.7925 TC 30 13.2273 89.6078 1 6 39
1933142N12088 1933 16 NI BB NOT_NAMED 1933-05-23 00:00:00 TS 13.5782 89.9006 main 534 504 _________OP___ -1 13.7000 90.0000 TC 30 13.4564 89.8012 1 6 40
1933142N12088 1933 16 NI BB NOT_NAMED 1933-05-23 03:00:00 TS 13.8213 90.1250 main 504 460 _________PO___ -1 13.9425 90.2500 TC 31 13.7000 90.0000 1 7 42
1933142N12088 1933 16 NI BB NOT_NAMED 1933-05-23 06:00:00 TS 14.0763 90.3670 main 460 430 _________OP___ -1 14.2000 90.5000 TC 32 13.9526 90.2340 1 7 40
1933142N12088 1933 16 NI BB NOT_NAMED 1933-05-23 09:00:00 TS 14.3563 90.5937 main 425 397 _________PP___ -1 14.4925 90.7150 TC 33 14.2201 90.4724 1 7 36
1933142N12088 1933 16 NI BB NOT_NAMED 1933-05-23 12:00:00 TS 14.6513 90.7998 main 392 364 _________OP___ -1 14.8000 90.9000 TC 34 14.5026 90.6996 1 7 32
1933142N12088 1933 16 NI BB NOT_NAMED 1933-05-23 15:00:00 TS 14.9462 90.9825 main 364 343 _________PO___ -1 15.0925 91.0651 TC 36 14.8000 90.9000 2 7 28
1933142N12088 1933 16 NI BB NOT_NAMED 1933-05-23 18:00:00 TS 15.2593 91.1391 main 341 313 _________OP___ -1 15.4000 91.2000 TC 39 15.1187 91.0781 2 7 24
1933142N12088 1933 16 NI BB NOT_NAMED 1933-05-23 21:00:00 TS 15.6000 91.2774 main 313 299 _________PP___ -1 15.7500 91.3299 TC 42 15.4499 91.2249 2 7 18
1933142N12088 1933 16 NI BB NOT_NAMED 1933-05-24 00:00:00 TS 15.9406 91.3671 main 299 299 _________OP___ -1 16.1000 91.4000 TC 45 15.7812 91.3343 2 7 9
1933142N12088 1933 16 NI BB NOT_NAMED 1933-05-24 03:00:00 TS 16.2575 91.3826 main 301 301 _________PO___ -1 16.4150 91.3651 TC 45 16.1000 91.4000 3 6 358
1933142N12088 1933 16 NI BB NOT_NAMED 1933-05-24 06:00:00 TS 16.5467 91.3552 main 304 304 _________OP___ -1 16.7000 91.3000 TC 45 16.3934 91.4104 3 6 355
1933142N12088 1933 16 NI BB NOT_NAMED 1933-05-24 09:00:00 TS 16.8150 91.3365 main 321 321 _________PP___ -1 16.9575 91.2925 TC 45 16.6725 91.3805 3 5 356
1933142N12088 1933 16 NI BB NOT_NAMED 1933-05-24 12:00:00 TS 17.0701 91.3177 main 326 317 _________OP___ -1 17.2000 91.3000 TC 45 16.9403 91.3353 3 5 356
1933142N12088 1933 16 NI BB NOT_NAMED 1933-05-24 15:00:00 TS 17.3250 91.2963 main 317 303 _________PO___ -1 17.4500 91.2925 TC 45 17.2000 91.3000 3 5 0
1933142N12088 1933 16 NI BB NOT_NAMED 1933-05-24 18:00:00 TS 17.5597 91.2966 main 297 286 _________OP___ -1 17.7000 91.3000 TC 45 17.4544 91.2941 3 5 1
1933142N12088 1933 16 NI BB NOT_NAMED 1933-05-24 21:00:00 TS 17.8030 91.3248 main 286 267 _________PP___ -1 17.9500 91.3400 TC 45 17.7050 91.3146 3 5 9
1933142N12088 1933 16 NI BB NOT_NAMED 1933-05-25 00:00:00 TS 18.0354 91.3686 main 267 258 _________OP___ -1 18.2000 91.4000 TC 45 17.9531 91.3528 3 4 10
1933142N12088 1933 16 NI BB NOT_NAMED 1933-05-25 03:00:00 NR 18.2000 91.4000 main 258 __________O___ -1 TC 18.2000 91.4000 3 3 11

IBTrACS Databaseについて

本データベースは、米国NOAAが公開する1842年以降の世界の熱帯低気圧のベストトラックデータアーカイブInternational Best Track Archive for Climate Stewardship (IBTrACS)を、ウェブで閲覧しやすい形式に変換したものです。

最終更新日:2021-11-26